Time;durP1;ratioP1;P1;durP2;ratioP2;P2;SDS_P1;SDS_P2;PMS_P1;PMS_P2;Temp;Humidity;BMP_temperature;BMP_pressure;BME280_temperature;BME280_humidity;BME280_pressure;Samples;Min_cycle;Max_cycle;Signal;HPM_P1;HPM_P2
2022/10/26 00:00:45;;;;;;;9.33;7.67;;;10.00;99.90;;;;;;4932345;29;20573;-76
2022/10/26 00:03:10;;;;;;;9.43;7.73;;;10.00;99.90;;;;;;4934043;29;20192;-76
2022/10/26 00:05:36;;;;;;;9.73;8.57;;;10.00;99.90;;;;;;4943450;29;20229;-74
2022/10/26 00:08:03;;;;;;;10.37;7.97;;;10.00;99.90;;;;;;4936091;29;20779;-73
2022/10/26 00:10:28;;;;;;;10.97;7.90;;;10.00;99.90;;;;;;4942026;29;20196;-73
2022/10/26 00:12:54;;;;;;;8.60;7.67;;;9.90;99.90;;;;;;4941053;29;20754;-71
2022/10/26 00:15:20;;;;;;;9.13;7.47;;;10.00;99.90;;;;;;4940123;29;20276;-73
2022/10/26 00:17:47;;;;;;;12.43;8.37;;;10.00;99.90;;;;;;4935112;29;20204;-72
2022/10/26 00:20:13;;;;;;;13.40;8.03;;;10.00;99.90;;;;;;4942823;29;20220;-74
2022/10/26 00:22:39;;;;;;;12.37;7.63;;;10.00;99.90;;;;;;4944509;29;20202;-73
2022/10/26 00:25:05;;;;;;;8.67;7.83;;;10.00;99.90;;;;;;4939775;29;20214;-74
2022/10/26 00:27:33;;;;;;;10.73;7.70;;;10.00;99.90;;;;;;4943151;29;20298;-75
2022/10/26 00:29:59;;;;;;;7.70;7.00;;;9.90;99.90;;;;;;4930746;29;20206;-75
2022/10/26 00:32:25;;;;;;;10.10;8.50;;;9.90;99.90;;;;;;4941380;29;20651;-75
2022/10/26 00:34:50;;;;;;;11.23;7.63;;;9.90;99.90;;;;;;4941755;29;20207;-76
2022/10/26 00:37:15;;;;;;;9.13;7.50;;;9.90;99.90;;;;;;4943359;29;20194;-77
2022/10/26 00:39:41;;;;;;;7.90;7.20;;;9.80;99.90;;;;;;4938695;29;20646;-77
2022/10/26 00:42:13;;;;;;;11.90;8.37;;;9.80;99.90;;;;;;4943111;29;20238;-76
2022/10/26 00:44:45;;;;;;;8.60;7.17;;;9.80;99.90;;;;;;4938213;29;20282;-77
2022/10/26 00:47:22;;;;;;;10.47;8.23;;;9.80;99.90;;;;;;4929612;29;20281;-80
2022/10/26 00:49:50;;;;;;;11.97;8.17;;;9.80;99.90;;;;;;4942019;29;20568;-81
2022/10/26 00:52:17;;;;;;;12.57;8.40;;;9.80;99.90;;;;;;4939741;29;20214;-77
2022/10/26 00:54:44;;;;;;;13.43;9.13;;;9.80;99.90;;;;;;4939490;28;20231;-77
2022/10/26 00:57:13;;;;;;;8.83;7.93;;;9.80;99.90;;;;;;4942620;29;20195;-77
2022/10/26 00:59:39;;;;;;;10.00;7.83;;;9.80;99.90;;;;;;4938452;29;20213;-76
2022/10/26 01:02:04;;;;;;;12.57;8.93;;;9.80;99.90;;;;;;4944080;29;20285;-76
2022/10/26 01:04:31;;;;;;;9.53;7.60;;;9.80;99.90;;;;;;4935943;29;20220;-80
2022/10/26 01:06:57;;;;;;;8.53;7.63;;;9.70;99.90;;;;;;4910443;29;20714;-77
2022/10/26 01:09:23;;;;;;;13.73;8.57;;;9.70;99.90;;;;;;4947067;29;20190;-78
2022/10/26 01:11:48;;;;;;;11.47;8.40;;;9.70;99.90;;;;;;4941662;29;20213;-78
2022/10/26 01:14:17;;;;;;;8.07;7.33;;;9.70;99.90;;;;;;4946294;29;20201;-79
2022/10/26 01:16:52;;;;;;;8.57;7.67;;;9.70;99.90;;;;;;4938325;29;20206;-80
2022/10/26 01:19:52;;;;;;;10.93;8.00;;;9.70;99.90;;;;;;4937598;29;20612;-80
2022/10/26 01:22:21;;;;;;;9.93;8.40;;;9.60;99.90;;;;;;4931423;29;20348;-79
2022/10/26 01:25:00;;;;;;;10.13;7.60;;;9.60;99.90;;;;;;4937902;29;20203;-79
2022/10/26 01:27:38;;;;;;;12.27;8.10;;;9.60;99.90;;;;;;4941148;29;20213;-77
2022/10/26 01:30:21;;;;;;;10.90;7.90;;;9.60;99.90;;;;;;4929788;28;20551;-78
2022/10/26 01:33:21;;;;;;;8.83;7.93;;;9.60;99.90;;;;;;4944342;29;20229;-80
2022/10/26 01:35:56;;;;;;;11.13;7.30;;;9.60;99.90;;;;;;4933375;29;20199;-78
2022/10/26 01:38:44;;;;;;;10.80;7.70;;;9.50;99.90;;;;;;4946586;29;20205;-78
2022/10/26 01:41:25;;;;;;;10.90;7.77;;;9.60;99.90;;;;;;4933324;29;20191;-77
2022/10/26 01:43:58;;;;;;;12.13;8.37;;;9.50;99.90;;;;;;4936294;29;20191;-79
2022/10/26 01:46:26;;;;;;;9.80;8.20;;;9.50;99.90;;;;;;4937176;29;20523;-79
2022/10/26 01:48:57;;;;;;;9.63;6.97;;;9.50;99.90;;;;;;4946515;29;20352;-79
2022/10/26 01:51:24;;;;;;;12.83;7.43;;;9.50;99.90;;;;;;4943503;29;20207;-78
2022/10/26 01:53:49;;;;;;;8.17;7.37;;;9.50;99.90;;;;;;4946258;28;20253;-79
2022/10/26 01:56:27;;;;;;;9.73;8.33;;;9.50;99.90;;;;;;4944382;29;20228;-79
2022/10/26 01:59:21;;;;;;;10.53;8.17;;;9.50;99.90;;;;;;4945872;29;20613;-79
2022/10/26 02:01:46;;;;;;;11.40;8.83;;;9.50;99.90;;;;;;4943393;29;20731;-79
2022/10/26 02:04:23;;;;;;;10.10;8.33;;;9.40;99.90;;;;;;4919174;29;20235;-78
2022/10/26 02:07:10;;;;;;;11.40;8.70;;;9.40;99.90;;;;;;4932048;29;20221;-78
2022/10/26 02:10:17;;;;;;;9.97;8.23;;;9.40;99.90;;;;;;4940087;29;20330;-78
2022/10/26 02:13:20;;;;;;;9.50;7.97;;;9.40;99.90;;;;;;4923517;29;20312;-77
2022/10/26 02:15:55;;;;;;;9.47;8.37;;;9.40;99.90;;;;;;4932415;29;20242;-77
2022/10/26 02:18:31;;;;;;;10.80;7.23;;;9.40;99.90;;;;;;4934935;29;20197;-77
2022/10/26 02:21:02;;;;;;;8.50;7.37;;;9.30;99.90;;;;;;4941500;29;20299;-77
2022/10/26 02:23:31;;;;;;;10.03;8.47;;;9.40;99.90;;;;;;4943781;29;20246;-78
2022/10/26 02:25:59;;;;;;;9.97;8.27;;;9.30;99.90;;;;;;4936469;29;20672;-77
2022/10/26 02:28:31;;;;;;;14.07;8.50;;;9.30;99.90;;;;;;4942432;29;20207;-77
2022/10/26 02:31:00;;;;;;;8.13;7.33;;;9.30;99.90;;;;;;4942677;29;20215;-78
2022/10/26 02:33:29;;;;;;;8.90;7.97;;;9.30;99.90;;;;;;4929644;29;20230;-78
2022/10/26 02:35:57;;;;;;;10.17;7.80;;;9.30;99.90;;;;;;4945738;29;20305;-81
2022/10/26 02:38:24;;;;;;;9.47;7.47;;;9.30;99.90;;;;;;4934544;29;20258;-79
2022/10/26 02:40:51;;;;;;;8.10;7.30;;;9.30;99.90;;;;;;4941401;29;20264;-78
2022/10/26 02:43:20;;;;;;;12.57;8.60;;;9.30;99.90;;;;;;4942601;28;20202;-79
2022/10/26 02:45:52;;;;;;;9.80;8.87;;;9.30;99.90;;;;;;4935521;29;20257;-77
2022/10/26 02:48:18;;;;;;;9.10;8.17;;;9.30;99.90;;;;;;4938480;29;20242;-78
2022/10/26 02:51:11;;;;;;;11.63;7.87;;;9.30;99.90;;;;;;4944897;29;20668;-78
2022/10/26 02:53:50;;;;;;;9.07;7.47;;;9.40;99.90;;;;;;4940757;28;20238;-79
2022/10/26 02:56:30;;;;;;;11.37;8.20;;;9.50;99.90;;;;;;4934160;29;20204;-79
2022/10/26 02:59:00;;;;;;;8.60;7.60;;;9.40;99.90;;;;;;4944693;29;20196;-78
2022/10/26 03:01:27;;;;;;;9.73;7.53;;;9.50;99.90;;;;;;4932070;29;20195;-78
2022/10/26 03:03:56;;;;;;;10.57;7.97;;;9.50;99.90;;;;;;4940387;29;20198;-79
2022/10/26 03:06:23;;;;;;;9.03;7.70;;;9.50;99.90;;;;;;4938998;29;20194;-78
2022/10/26 03:08:48;;;;;;;9.57;8.27;;;9.50;99.90;;;;;;4934590;29;20237;-78
2022/10/26 03:11:14;;;;;;;10.53;8.30;;;9.50;99.90;;;;;;4940981;29;20194;-78
2022/10/26 03:13:40;;;;;;;9.47;7.10;;;9.50;99.90;;;;;;4936721;29;20703;-78
2022/10/26 03:16:05;;;;;;;10.33;8.90;;;9.50;99.90;;;;;;4944634;29;20260;-76
2022/10/26 03:18:31;;;;;;;11.13;7.57;;;9.50;99.90;;;;;;4934270;29;20194;-78
2022/10/26 03:20:56;;;;;;;10.93;8.37;;;9.50;99.90;;;;;;4934229;29;20195;-79
2022/10/26 03:23:22;;;;;;;14.03;8.47;;;9.50;99.90;;;;;;4933411;29;20233;-79
2022/10/26 03:25:47;;;;;;;10.00;7.83;;;9.50;99.90;;;;;;4945325;29;20190;-77
2022/10/26 03:28:13;;;;;;;11.77;7.73;;;9.50;99.90;;;;;;4940861;29;20407;-78
2022/10/26 03:30:38;;;;;;;11.47;7.80;;;9.50;99.90;;;;;;4944585;29;20602;-79
2022/10/26 03:33:04;;;;;;;9.77;7.03;;;9.50;99.90;;;;;;4938068;29;20721;-79
2022/10/26 03:35:30;;;;;;;9.73;7.70;;;9.50;99.90;;;;;;4935844;29;20224;-79
2022/10/26 03:37:55;;;;;;;11.13;7.70;;;9.50;99.90;;;;;;4939153;29;20759;-79
2022/10/26 03:40:21;;;;;;;9.70;7.73;;;9.50;99.90;;;;;;4935544;29;20191;-79
2022/10/26 03:42:46;;;;;;;11.37;7.00;;;9.50;99.90;;;;;;4936438;29;20676;-79
2022/10/26 03:45:12;;;;;;;11.13;8.00;;;9.50;99.90;;;;;;4939035;29;20428;-79
2022/10/26 03:47:44;;;;;;;8.03;7.20;;;9.50;99.90;;;;;;4935587;29;20708;-79
2022/10/26 03:50:11;;;;;;;7.87;6.97;;;9.50;99.90;;;;;;4936032;29;20213;-79
2022/10/26 03:52:37;;;;;;;8.37;6.87;;;9.60;99.90;;;;;;4939247;29;20220;-79
2022/10/26 03:55:03;;;;;;;8.87;6.63;;;9.60;99.90;;;;;;4938416;28;20202;-79
2022/10/26 03:57:28;;;;;;;11.77;8.00;;;9.50;99.90;;;;;;4940626;29;20720;-79
2022/10/26 03:59:53;;;;;;;9.23;7.67;;;9.50;99.90;;;;;;4947976;29;20202;-79
2022/10/26 04:02:19;;;;;;;9.50;7.07;;;9.50;99.90;;;;;;4939967;29;20202;-79
2022/10/26 04:04:44;;;;;;;10.57;7.33;;;9.50;99.90;;;;;;4947521;29;20666;-79
2022/10/26 04:07:10;;;;;;;9.83;7.80;;;9.50;99.90;;;;;;4945621;29;20546;-80
2022/10/26 04:09:35;;;;;;;11.93;6.47;;;9.50;99.90;;;;;;4941984;29;20198;-79
2022/10/26 04:12:01;;;;;;;9.47;6.67;;;9.50;99.90;;;;;;4940258;29;20264;-84
2022/10/26 04:14:26;;;;;;;6.73;6.03;;;9.40;99.90;;;;;;4947550;29;20235;-80
2022/10/26 04:16:52;;;;;;;13.57;7.43;;;9.50;99.90;;;;;;4943517;29;20195;-81
2022/10/26 04:19:17;;;;;;;8.70;6.90;;;9.50;99.90;;;;;;4938685;29;20967;-76
2022/10/26 04:21:42;;;;;;;9.67;6.77;;;9.40;99.90;;;;;;4946021;29;20187;-77
2022/10/26 04:24:10;;;;;;;7.20;6.50;;;9.50;99.90;;;;;;4948117;29;20666;-79
2022/10/26 04:26:35;;;;;;;9.60;7.07;;;9.40;99.90;;;;;;4938122;29;20207;-77
2022/10/26 04:29:03;;;;;;;10.50;6.93;;;9.50;99.90;;;;;;4943485;29;20187;-78
2022/10/26 04:31:29;;;;;;;8.70;7.57;;;9.40;99.90;;;;;;4948385;29;20255;-78
2022/10/26 04:33:54;;;;;;;7.03;6.33;;;9.50;99.90;;;;;;4946226;29;20605;-78
2022/10/26 04:36:19;;;;;;;9.60;7.20;;;9.50;99.90;;;;;;4948714;29;20201;-78
2022/10/26 04:38:47;;;;;;;10.17;7.90;;;9.50;99.90;;;;;;4943395;29;20325;-78
2022/10/26 04:41:13;;;;;;;10.03;6.97;;;9.40;99.90;;;;;;4939022;29;21001;-78
2022/10/26 04:43:41;;;;;;;10.53;7.23;;;9.40;99.90;;;;;;4936038;29;20203;-78
2022/10/26 04:46:07;;;;;;;7.40;6.70;;;9.40;99.90;;;;;;4938754;29;20235;-78
2022/10/26 04:48:32;;;;;;;8.07;7.27;;;9.40;99.90;;;;;;4939320;29;20197;-78
2022/10/26 04:50:59;;;;;;;11.13;8.53;;;9.40;99.90;;;;;;4941645;29;20198;-77
2022/10/26 04:53:25;;;;;;;9.53;7.90;;;9.40;99.90;;;;;;4940951;28;20233;-78
2022/10/26 04:55:59;;;;;;;11.63;7.43;;;9.40;99.90;;;;;;4941998;29;20231;-77
2022/10/26 04:58:26;;;;;;;9.47;7.80;;;9.30;99.90;;;;;;4942114;29;20200;-77
2022/10/26 05:00:55;;;;;;;8.37;7.57;;;9.40;99.90;;;;;;4935903;29;20285;-79
2022/10/26 05:03:20;;;;;;;9.10;7.60;;;9.40;99.90;;;;;;4941812;29;20276;-78
2022/10/26 05:05:49;;;;;;;9.93;8.10;;;9.40;99.90;;;;;;4935450;29;20989;-78
2022/10/26 05:08:15;;;;;;;7.90;7.10;;;9.40;99.90;;;;;;4928107;29;20206;-78
2022/10/26 05:10:41;;;;;;;11.23;8.10;;;9.40;99.90;;;;;;4939435;29;20228;-78
2022/10/26 05:13:08;;;;;;;9.50;8.03;;;9.30;99.90;;;;;;4944398;29;20583;-78
2022/10/26 05:15:33;;;;;;;9.20;8.30;;;9.30;99.90;;;;;;4938089;29;20195;-79
2022/10/26 05:18:04;;;;;;;14.30;8.40;;;9.30;99.90;;;;;;4936427;29;20278;-76
2022/10/26 05:20:31;;;;;;;9.57;8.60;;;9.30;99.90;;;;;;4937462;29;20280;-77
2022/10/26 05:22:59;;;;;;;8.87;7.97;;;9.20;99.90;;;;;;4942103;29;20571;-77
2022/10/26 05:25:26;;;;;;;10.70;8.30;;;9.20;99.90;;;;;;4937243;29;20314;-77
2022/10/26 05:27:51;;;;;;;12.63;8.47;;;9.20;99.90;;;;;;4932050;29;20209;-77
2022/10/26 05:30:16;;;;;;;9.63;8.40;;;9.20;99.90;;;;;;4937330;29;20203;-77
2022/10/26 05:32:42;;;;;;;11.73;8.53;;;9.20;99.90;;;;;;4942522;29;20230;-76
2022/10/26 05:35:07;;;;;;;9.83;8.77;;;9.20;99.90;;;;;;4938581;29;20187;-76
2022/10/26 05:37:33;;;;;;;10.33;8.87;;;9.20;99.90;;;;;;4936960;29;20207;-76
2022/10/26 05:39:58;;;;;;;12.80;9.40;;;9.20;99.90;;;;;;4946689;29;20335;-76
2022/10/26 05:42:24;;;;;;;11.50;8.50;;;9.10;99.90;;;;;;4938926;29;20578;-77
2022/10/26 05:44:50;;;;;;;12.63;8.90;;;9.10;99.90;;;;;;4946859;29;20202;-77
2022/10/26 05:47:15;;;;;;;9.57;8.57;;;9.10;99.90;;;;;;4937686;29;20226;-77
2022/10/26 05:49:41;;;;;;;9.73;7.70;;;9.10;99.90;;;;;;4944132;29;20335;-83
2022/10/26 05:52:06;;;;;;;14.57;9.40;;;9.10;99.90;;;;;;4938542;29;20212;-83
2022/10/26 05:54:32;;;;;;;9.23;8.17;;;9.10;99.90;;;;;;4942083;28;20896;-83
2022/10/26 05:56:57;;;;;;;10.97;9.33;;;9.10;99.90;;;;;;4935883;29;20273;-85
2022/10/26 05:59:23;;;;;;;8.97;8.07;;;9.10;99.90;;;;;;4947926;29;20202;-84
2022/10/26 06:02:22;;;;;;;12.57;9.00;;;9.20;99.90;;;;;;4936360;29;20732;-83
2022/10/26 06:04:48;;;;;;;11.33;8.57;;;9.20;99.90;;;;;;4937266;29;20231;-83
2022/10/26 06:07:19;;;;;;;9.80;8.27;;;9.20;99.90;;;;;;4939406;29;20253;-84
2022/10/26 06:09:45;;;;;;;11.90;9.57;;;9.20;99.90;;;;;;4939269;29;20830;-84
2022/10/26 06:12:11;;;;;;;14.27;9.93;;;9.20;99.90;;;;;;4942769;29;20240;-83
2022/10/26 06:14:37;;;;;;;13.23;9.27;;;9.20;99.90;;;;;;4946829;29;20270;-83
2022/10/26 06:17:33;;;;;;;13.50;9.53;;;9.20;99.90;;;;;;4936024;28;20558;-83
2022/10/26 06:20:21;;;;;;;12.47;9.70;;;9.20;99.90;;;;;;4932487;29;20254;-81
2022/10/26 06:23:16;;;;;;;13.60;9.67;;;9.20;99.90;;;;;;4939126;29;20582;-79
2022/10/26 06:25:54;;;;;;;9.17;8.27;;;9.20;99.90;;;;;;4930072;29;20783;-79
2022/10/26 06:28:26;;;;;;;11.97;9.43;;;9.20;99.90;;;;;;4939262;29;20198;-79
2022/10/26 06:30:51;;;;;;;13.23;9.60;;;9.30;99.90;;;;;;4937920;29;20215;-74
2022/10/26 06:33:17;;;;;;;10.30;9.13;;;9.30;99.90;;;;;;4941176;29;20681;-75
2022/10/26 06:36:12;;;;;;;19.77;9.13;;;9.30;99.90;;;;;;4935934;29;20658;-75
2022/10/26 06:38:43;;;;;;;11.33;8.70;;;9.30;99.90;;;;;;4942342;29;20202;-77
2022/10/26 06:41:13;;;;;;;15.77;10.27;;;9.40;99.90;;;;;;4945294;29;20576;-78
2022/10/26 06:43:39;;;;;;;10.00;8.23;;;9.50;99.90;;;;;;4936015;29;20293;-76
2022/10/26 06:46:13;;;;;;;11.93;8.63;;;9.50;99.90;;;;;;4935561;29;20326;-74
2022/10/26 06:48:52;;;;;;;16.83;10.23;;;9.60;99.90;;;;;;4943213;29;20222;-74
2022/10/26 06:51:19;;;;;;;12.13;9.33;;;9.60;99.90;;;;;;4945148;29;20191;-79
2022/10/26 06:54:07;;;;;;;14.80;9.67;;;9.60;99.90;;;;;;4938488;28;20222;-78
2022/10/26 06:56:33;;;;;;;17.00;9.93;;;9.60;99.90;;;;;;4935218;29;20215;-77
2022/10/26 06:59:33;;;;;;;13.67;10.20;;;9.70;99.90;;;;;;4937032;29;20363;-78
2022/10/26 07:01:58;;;;;;;10.63;8.70;;;9.70;99.90;;;;;;4919236;29;20341;-79
2022/10/26 07:04:24;;;;;;;13.40;8.43;;;9.80;99.90;;;;;;4942995;29;20683;-79
2022/10/26 07:06:49;;;;;;;10.57;8.80;;;9.90;99.90;;;;;;4945594;29;20572;-79
2022/10/26 07:09:15;;;;;;;12.33;8.47;;;9.90;99.90;;;;;;4941612;29;20219;-79
2022/10/26 07:11:40;;;;;;;10.63;9.13;;;10.00;99.90;;;;;;4942260;29;20255;-77
2022/10/26 07:14:06;;;;;;;12.20;8.77;;;10.10;99.90;;;;;;4941435;29;20236;-78
2022/10/26 07:16:31;;;;;;;13.33;9.40;;;10.20;99.90;;;;;;4932966;29;20183;-78
2022/10/26 07:18:56;;;;;;;11.10;9.80;;;10.20;99.90;;;;;;4938896;29;20221;-78
2022/10/26 07:21:22;;;;;;;16.00;9.30;;;10.20;99.90;;;;;;4944999;29;20735;-71
2022/10/26 07:23:47;;;;;;;9.43;7.73;;;10.30;99.90;;;;;;4932579;29;20205;-68
2022/10/26 07:26:13;;;;;;;14.53;9.73;;;10.40;99.90;;;;;;4937563;29;20186;-71
2022/10/26 07:28:38;;;;;;;9.77;8.60;;;10.50;99.90;;;;;;4935284;29;20285;-70
2022/10/26 07:31:04;;;;;;;11.40;9.03;;;10.50;99.90;;;;;;4936383;29;20192;-69
2022/10/26 07:33:30;;;;;;;11.73;9.23;;;10.60;99.90;;;;;;4927589;29;20298;-70
2022/10/26 07:35:57;;;;;;;9.33;8.40;;;10.60;99.90;;;;;;4929245;29;20230;-70
2022/10/26 07:38:22;;;;;;;10.50;8.33;;;10.70;99.90;;;;;;4925381;29;20245;-69
2022/10/26 07:40:49;;;;;;;10.90;8.77;;;10.80;99.90;;;;;;4927189;29;20682;-71
2022/10/26 07:43:15;;;;;;;9.40;8.40;;;10.80;99.90;;;;;;4925536;29;20201;-70
2022/10/26 07:45:40;;;;;;;11.07;8.20;;;10.90;99.90;;;;;;4927807;29;20264;-71
2022/10/26 07:48:06;;;;;;;13.43;9.37;;;10.90;99.90;;;;;;4929505;29;20393;-72
2022/10/26 07:50:32;;;;;;;10.23;8.43;;;11.00;99.90;;;;;;4929353;29;20229;-69
2022/10/26 07:52:58;;;;;;;10.00;8.47;;;11.20;99.90;;;;;;4925359;29;20244;-69
2022/10/26 07:55:24;;;;;;;9.60;8.70;;;11.30;99.90;;;;;;4928131;29;20628;-69
2022/10/26 07:57:49;;;;;;;11.50;8.77;;;11.50;99.90;;;;;;4927168;29;20224;-69
2022/10/26 08:00:15;;;;;;;10.70;9.60;;;11.60;99.90;;;;;;4927195;29;20207;-69
2022/10/26 08:02:40;;;;;;;13.33;8.37;;;11.70;99.90;;;;;;4925026;29;20213;-68
2022/10/26 08:05:06;;;;;;;9.97;8.47;;;11.80;99.90;;;;;;4928604;29;20723;-69
2022/10/26 08:07:32;;;;;;;9.20;7.00;;;11.90;99.90;;;;;;4925085;29;20319;-69
2022/10/26 08:09:57;;;;;;;12.03;7.00;;;11.90;99.90;;;;;;4927063;29;20232;-71
2022/10/26 08:12:23;;;;;;;11.07;8.33;;;12.10;99.90;;;;;;4927213;29;20283;-70
2022/10/26 08:14:48;;;;;;;12.53;8.43;;;12.10;99.90;;;;;;4927616;29;20202;-70
2022/10/26 08:17:19;;;;;;;9.97;6.90;;;12.20;99.90;;;;;;4905952;29;20180;-70
2022/10/26 08:19:46;;;;;;;8.60;6.90;;;12.20;99.90;;;;;;4927338;29;20293;-69
2022/10/26 08:22:12;;;;;;;13.30;7.53;;;12.30;99.90;;;;;;4927761;29;20192;-69
2022/10/26 08:24:37;;;;;;;7.77;6.77;;;12.30;99.90;;;;;;4926505;29;20645;-69
2022/10/26 08:27:03;;;;;;;10.73;7.17;;;12.30;99.90;;;;;;4927991;29;20237;-68
2022/10/26 08:29:28;;;;;;;10.03;7.10;;;12.40;99.90;;;;;;4928173;29;20201;-70
2022/10/26 08:31:55;;;;;;;8.47;6.87;;;12.50;99.90;;;;;;4925647;29;20215;-70
2022/10/26 08:34:21;;;;;;;7.77;7.07;;;12.50;99.90;;;;;;4932380;29;20707;-71
2022/10/26 08:36:46;;;;;;;6.57;5.93;;;12.60;99.90;;;;;;4935291;29;20203;-69
2022/10/26 08:39:12;;;;;;;9.03;6.90;;;12.70;99.90;;;;;;4940673;28;20198;-68
2022/10/26 08:41:42;;;;;;;7.80;6.80;;;12.80;99.90;;;;;;4944057;29;20294;-69
2022/10/26 08:44:21;;;;;;;7.63;6.80;;;12.80;99.90;;;;;;4940637;29;20253;-70
2022/10/26 08:46:57;;;;;;;10.10;6.73;;;12.90;99.90;;;;;;4943851;29;20225;-69
2022/10/26 08:49:28;;;;;;;9.50;7.10;;;12.90;99.90;;;;;;4938990;29;20751;-68
2022/10/26 08:51:57;;;;;;;7.37;6.37;;;13.00;99.90;;;;;;4938296;29;20334;-69
2022/10/26 08:54:43;;;;;;;8.83;6.97;;;13.10;99.90;;;;;;4938810;28;20213;-69
2022/10/26 08:57:25;;;;;;;7.47;6.77;;;13.10;99.90;;;;;;4935664;29;20698;-69
2022/10/26 09:00:15;;;;;;;9.00;7.43;;;13.10;99.90;;;;;;4941012;29;20209;-70
2022/10/26 09:02:41;;;;;;;10.67;7.47;;;13.10;99.90;;;;;;4928752;29;20680;-79
2022/10/26 09:05:15;;;;;;;9.43;7.60;;;13.20;99.90;;;;;;4945119;29;20198;-85
2022/10/26 09:07:58;;;;;;;8.40;7.43;;;13.30;99.90;;;;;;4938017;29;20210;-89
2022/10/26 09:10:46;;;;;;;10.17;7.10;;;13.30;99.90;;;;;;4932112;29;20277;-77
2022/10/26 09:13:31;;;;;;;11.33;6.60;;;13.40;99.90;;;;;;4927618;29;20499;-81
2022/10/26 09:16:13;;;;;;;11.43;7.70;;;13.40;99.90;;;;;;4945417;29;20194;-78
2022/10/26 09:18:48;;;;;;;8.57;7.40;;;13.50;99.90;;;;;;4926918;29;20285;-80
2022/10/26 09:21:56;;;;;;;7.33;6.60;;;13.60;99.90;;;;;;4937496;29;20579;-82
2022/10/26 09:24:33;;;;;;;7.33;6.63;;;13.60;99.90;;;;;;4939552;29;20213;-81
2022/10/26 09:27:29;;;;;;;7.33;6.23;;;13.70;99.90;;;;;;4944816;29;20186;-88
2022/10/26 09:29:57;;;;;;;6.47;5.50;;;13.70;99.90;;;;;;4939142;29;20207;-79
2022/10/26 09:32:31;;;;;;;8.20;6.13;;;13.80;99.90;;;;;;4933881;29;20225;-77
2022/10/26 09:35:03;;;;;;;8.10;5.27;;;13.80;99.90;;;;;;4931437;29;20194;-92
2022/10/26 09:37:35;;;;;;;6.27;5.63;;;13.90;99.90;;;;;;4936192;29;20199;-87
2022/10/26 09:40:12;;;;;;;6.53;4.87;;;14.00;99.90;;;;;;4933871;29;20191;-82
2022/10/26 09:42:47;;;;;;;7.83;5.00;;;14.00;99.90;;;;;;4930989;29;20202;-82
2022/10/26 09:45:27;;;;;;;5.57;4.90;;;14.10;99.90;;;;;;4942309;29;20225;-79
2022/10/26 09:47:55;;;;;;;7.20;4.40;;;14.10;99.90;;;;;;4935605;29;20764;-81
2022/10/26 09:50:34;;;;;;;6.33;4.70;;;14.10;99.90;;;;;;4946859;29;20320;-80
2022/10/26 09:52:59;;;;;;;5.80;4.97;;;14.20;99.90;;;;;;4915205;29;20216;-80
2022/10/26 09:55:26;;;;;;;6.23;4.50;;;14.20;99.90;;;;;;4944021;29;20190;-80
2022/10/26 09:57:55;;;;;;;6.00;4.57;;;14.30;99.90;;;;;;4936611;29;20204;-80
2022/10/26 10:00:23;;;;;;;7.47;4.70;;;14.30;99.90;;;;;;4946771;29;20198;-77
2022/10/26 10:02:51;;;;;;;4.23;3.90;;;14.40;99.90;;;;;;4938202;29;20195;-80
2022/10/26 10:05:20;;;;;;;5.70;5.10;;;14.40;99.90;;;;;;4949264;29;20213;-80
2022/10/26 10:07:46;;;;;;;5.17;4.60;;;14.50;99.90;;;;;;4943997;29;20199;-79
2022/10/26 10:10:21;;;;;;;5.43;4.20;;;14.60;99.90;;;;;;4954133;29;20204;-78
2022/10/26 10:12:51;;;;;;;11.90;3.87;;;14.60;99.90;;;;;;4953015;29;20236;-79
2022/10/26 10:15:24;;;;;;;8.23;3.73;;;14.70;99.90;;;;;;4961055;29;20227;-77
2022/10/26 10:17:54;;;;;;;5.27;3.97;;;14.80;99.90;;;;;;4951439;29;20221;-80
2022/10/26 10:20:23;;;;;;;4.87;3.90;;;15.00;99.90;;;;;;4957861;29;20198;-78
2022/10/26 10:22:58;;;;;;;4.00;3.27;;;15.20;99.90;;;;;;4948190;29;20194;-76
2022/10/26 10:25:38;;;;;;;4.00;3.63;;;15.40;99.90;;;;;;4950699;29;20280;-73
2022/10/26 10:28:38;;;;;;;5.40;3.23;;;15.50;99.90;;;;;;4953869;29;20332;-78
2022/10/26 10:31:17;;;;;;;5.77;3.47;;;15.60;99.90;;;;;;4922433;29;20213;-79
2022/10/26 10:33:44;;;;;;;4.63;3.60;;;15.70;99.90;;;;;;4952602;29;20209;-78
2022/10/26 10:36:14;;;;;;;4.10;3.57;;;15.90;99.90;;;;;;4939872;29;20666;-79
2022/10/26 10:38:42;;;;;;;4.27;3.87;;;16.00;99.90;;;;;;4937352;29;20193;-79
2022/10/26 10:41:31;;;;;;;6.93;3.70;;;16.10;99.90;;;;;;4939108;29;20194;-80
2022/10/26 10:44:32;;;;;;;3.47;3.17;;;16.20;99.90;;;;;;4931807;29;20206;-78
2022/10/26 10:47:03;;;;;;;4.60;3.77;;;16.40;99.90;;;;;;4848408;29;20248;-77
2022/10/26 10:49:29;;;;;;;4.37;3.73;;;16.50;99.90;;;;;;4900013;29;20339;-75
2022/10/26 10:51:55;;;;;;;3.57;3.23;;;16.60;99.90;;;;;;4913902;29;20690;-83
2022/10/26 10:54:27;;;;;;;5.30;3.83;;;16.70;99.90;;;;;;4907646;29;20713;-77
2022/10/26 10:57:10;;;;;;;3.23;3.03;;;16.80;99.90;;;;;;4912699;29;20195;-77
2022/10/26 10:59:54;;;;;;;7.33;3.40;;;16.90;99.90;;;;;;4912811;29;20200;-83
2022/10/26 11:02:49;;;;;;;4.90;3.53;;;17.00;99.90;;;;;;4909467;29;20223;-78
2022/10/26 11:05:23;;;;;;;6.50;4.10;;;17.10;99.90;;;;;;4908378;29;20559;-82
2022/10/26 11:08:08;;;;;;;7.13;3.67;;;17.30;99.90;;;;;;4909274;29;20256;-83
2022/10/26 11:10:39;;;;;;;4.17;3.67;;;17.50;99.90;;;;;;4912059;29;20203;-80
2022/10/26 11:13:19;;;;;;;5.70;3.77;;;17.60;99.90;;;;;;4907696;29;20215;-80
2022/10/26 11:15:49;;;;;;;5.77;3.50;;;17.80;99.90;;;;;;4916481;29;20249;-84
2022/10/26 11:18:24;;;;;;;4.33;3.53;;;17.90;99.90;;;;;;4902731;29;20219;-84
2022/10/26 11:21:00;;;;;;;3.83;3.47;;;18.10;99.90;;;;;;4906905;29;20207;-80
2022/10/26 11:23:37;;;;;;;5.67;4.10;;;18.20;99.90;;;;;;4923433;29;20208;-80
2022/10/26 11:26:14;;;;;;;3.43;3.00;;;18.30;99.90;;;;;;4918907;29;20303;-79
2022/10/26 11:28:57;;;;;;;4.93;3.83;;;18.40;99.90;;;;;;4914816;29;20250;-78
2022/10/26 11:31:30;;;;;;;27.30;6.93;;;18.50;99.90;;;;;;4917866;29;20678;-79
2022/10/26 11:34:23;;;;;;;5.47;3.37;;;18.70;99.90;;;;;;4923306;29;20213;-78
2022/10/26 11:36:54;;;;;;;5.37;4.07;;;18.80;99.90;;;;;;4921174;29;20937;-80
2022/10/26 11:39:32;;;;;;;4.67;4.07;;;19.00;99.90;;;;;;4919519;29;20206;-81
2022/10/26 11:42:20;;;;;;;5.47;3.77;;;19.10;99.90;;;;;;4916581;29;20214;-84
2022/10/26 11:45:00;;;;;;;43.93;8.93;;;19.20;99.90;;;;;;4917101;29;20236;-82
2022/10/26 11:47:40;;;;;;;17.53;5.67;;;19.40;99.90;;;;;;4929711;29;20239;-82
2022/10/26 11:50:21;;;;;;;9.50;3.70;;;19.70;99.90;;;;;;4934638;29;20263;-80
2022/10/26 11:52:59;;;;;;;3.80;3.43;;;19.80;99.90;;;;;;4945341;28;20220;-82
2022/10/26 11:55:25;;;;;;;12.13;4.20;;;20.00;99.90;;;;;;4943791;29;20205;-82
2022/10/26 11:57:53;;;;;;;3.97;3.27;;;20.10;99.90;;;;;;4936724;29;20201;-81
2022/10/26 12:00:20;;;;;;;2.77;2.57;;;20.30;99.90;;;;;;4935486;29;20285;-82
2022/10/26 12:02:56;;;;;;;3.10;2.50;;;20.50;99.90;;;;;;4937994;29;20193;-81
2022/10/26 12:05:46;;;;;;;4.23;2.73;;;20.80;99.90;;;;;;4934464;29;20207;-78
2022/10/26 12:08:24;;;;;;;10.63;3.27;;;21.20;99.90;;;;;;4931241;29;20196;-77
2022/10/26 12:11:01;;;;;;;4.00;2.80;;;21.50;99.90;;;;;;4945063;29;20213;-82
2022/10/26 12:13:39;;;;;;;48.73;9.27;;;21.90;99.90;;;;;;4936205;29;20220;-84
2022/10/26 12:16:09;;;;;;;4.57;3.10;;;22.20;99.90;;;;;;4933887;29;20289;-84
2022/10/26 12:18:51;;;;;;;4.90;2.97;;;22.60;99.90;;;;;;4940100;29;20206;-78
2022/10/26 12:21:17;;;;;;;77.27;14.77;;;22.90;99.90;;;;;;4948395;29;20212;-72
2022/10/26 12:24:20;;;;;;;283.73;46.80;;;23.20;99.90;;;;;;4940317;29;20466;-76
2022/10/26 12:26:53;;;;;;;812.20;192.93;;;23.40;98.30;;;;;;4933634;29;20201;-77
2022/10/26 12:29:28;;;;;;;518.30;131.57;;;23.60;99.90;;;;;;4926086;29;20772;-77
2022/10/26 12:31:54;;;;;;;444.10;89.30;;;23.80;98.50;;;;;;4930384;29;20218;-76
2022/10/26 12:34:28;;;;;;;238.75;44.05;;;24.10;99.90;;;;;;4931379;29;20202;-75
2022/10/26 12:36:54;;;;;;;436.13;75.83;;;24.40;98.60;;;;;;4932627;29;20240;-81
2022/10/26 12:39:41;;;;;;;12.45;6.95;;;24.40;97.70;;;;;;4930840;29;20234;-76
2022/10/26 12:42:28;;;;;;;44.37;9.37;;;24.60;97.50;;;;;;4929789;29;20197;-74
2022/10/26 12:44:57;;;;;;;442.65;80.20;;;24.80;97.90;;;;;;4927901;29;20219;-79
2022/10/26 12:47:28;;;;;;;772.85;163.90;;;25.00;98.10;;;;;;4938237;29;20242;-78
2022/10/26 12:50:07;;;;;;;228.57;38.08;;;25.20;96.40;;;;;;4946261;29;20218;-79
2022/10/26 12:53:19;;;;;;;322.48;50.20;;;25.20;95.50;;;;;;4930100;28;20261;-84
2022/10/26 12:55:47;;;;;;;182.27;27.75;;;25.40;96.30;;;;;;4864104;29;20672;-78
2022/10/26 12:58:43;;;;;;;23.85;6.25;;;25.70;96.80;;;;;;4925631;29;20594;-86
2022/10/26 13:01:29;;;;;;;6.00;2.25;;;26.00;96.50;;;;;;4936422;29;20278;-80
2022/10/26 13:04:24;;;;;;;2.92;1.65;;;26.20;94.90;;;;;;4952654;29;20201;-83
2022/10/26 13:07:15;;;;;;;5.85;2.88;;;26.10;91.10;;;;;;4961850;29;20196;-83
2022/10/26 13:09:55;;;;;;;31.15;5.25;;;25.70;90.80;;;;;;4958385;29;20200;-84